createdAt,value
2023-04-18T05:03:09.273Z,25.00
2023-04-18T05:04:10.022Z,25.00
2023-04-18T05:05:09.994Z,25.00
2023-04-18T05:06:08.992Z,25.00
2023-04-18T05:07:10.017Z,25.00
2023-04-18T05:08:10.022Z,25.00
2023-04-18T05:09:09.068Z,0.00
2023-04-18T05:10:10.140Z,0.00
2023-04-18T05:11:09.174Z,0.00
2023-04-18T05:12:09.182Z,0.00
2023-04-18T05:13:09.231Z,0.00
2023-04-18T05:14:10.216Z,0.00
2023-04-18T05:15:10.250Z,0.00
2023-04-18T05:16:10.274Z,0.00
2023-04-18T05:17:09.252Z,0.00
2023-04-18T05:18:10.281Z,0.00
2023-04-18T05:19:10.240Z,0.00
2023-04-18T05:20:10.290Z,0.00
2023-04-18T05:21:10.285Z,0.00
2023-04-18T05:22:09.288Z,12.29
2023-04-18T05:23:09.304Z,25.91
2023-04-18T05:24:10.284Z,23.97
2023-04-18T05:25:09.313Z,28.14
2023-04-18T05:26:09.324Z,25.00
2023-04-18T05:27:10.321Z,28.75
2023-04-18T05:28:10.340Z,29.01
2023-04-18T05:29:10.355Z,25.00
2023-04-18T05:30:10.349Z,29.53
2023-04-18T05:31:10.472Z,26.83
2023-04-18T05:32:10.358Z,27.03
2023-04-18T05:33:10.362Z,27.42
2023-04-18T05:34:09.387Z,24.82
2023-04-18T05:35:09.358Z,26.53
2023-04-18T05:36:10.367Z,25.00
2023-04-18T05:37:09.350Z,26.73
2023-04-18T05:38:10.357Z,25.85
2023-04-18T05:39:09.383Z,26.68
2023-04-18T05:40:10.389Z,26.56
2023-04-18T05:41:10.390Z,26.50
2023-04-18T05:42:09.413Z,27.35
2023-04-18T05:43:10.413Z,27.64
2023-04-18T05:44:10.428Z,26.34
2023-04-18T05:45:09.424Z,27.36
2023-04-18T05:46:10.523Z,29.52
2023-04-18T05:47:10.491Z,26.94
2023-04-18T05:48:09.633Z,26.57
2023-04-18T05:49:10.539Z,26.97
2023-04-18T05:50:10.586Z,25.60
2023-04-18T05:51:11.087Z,30.40
2023-04-18T05:52:10.574Z,30.70
2023-04-18T05:53:09.569Z,27.89
2023-04-18T05:54:09.575Z,27.18
2023-04-18T05:55:09.613Z,31.33
2023-04-18T05:56:09.555Z,30.33
2023-04-18T05:57:10.575Z,30.70
2023-04-18T05:58:09.569Z,29.19
2023-04-18T05:59:09.588Z,27.78
2023-04-18T06:00:10.609Z,25.34
2023-04-18T06:01:10.594Z,27.07
2023-04-18T06:02:10.786Z,35.04
2023-04-18T06:03:11.285Z,32.31
2023-04-18T06:04:10.741Z,30.62
2023-04-18T06:05:10.919Z,32.15
2023-04-18T06:06:10.758Z,24.74
2023-04-18T06:07:09.646Z,30.77
2023-04-18T06:08:10.651Z,33.54
2023-04-18T06:09:10.681Z,33.34
2023-04-18T06:10:10.700Z,34.87
2023-04-18T06:11:10.704Z,29.71
2023-04-18T06:12:10.689Z,26.69
2023-04-18T06:13:09.666Z,29.50
2023-04-18T06:14:10.714Z,31.45
2023-04-18T06:15:10.728Z,31.14
2023-04-18T06:16:09.753Z,32.19
2023-04-18T06:17:10.732Z,29.28
2023-04-18T06:18:10.772Z,33.98
2023-04-18T06:19:10.754Z,31.76
2023-04-18T06:20:10.797Z,33.65
2023-04-18T06:21:10.794Z,29.24
2023-04-18T06:22:10.848Z,27.54
2023-04-18T06:23:09.853Z,31.68
2023-04-18T06:24:10.843Z,33.13
2023-04-18T06:25:10.863Z,30.14
2023-04-18T06:26:10.856Z,37.16
2023-04-18T06:27:20.716Z,34.34
2023-04-18T06:28:10.869Z,34.53
2023-04-18T06:29:10.844Z,34.37
2023-04-18T06:30:10.841Z,35.99
2023-04-18T06:31:10.854Z,30.26
2023-04-18T06:32:09.858Z,35.72
2023-04-18T06:33:10.835Z,33.89
2023-04-18T06:34:10.892Z,30.19
2023-04-18T06:35:09.823Z,38.01
2023-04-18T06:36:10.817Z,30.65
2023-04-18T06:37:10.809Z,25.79
2023-04-18T06:38:09.895Z,29.08
2023-04-18T06:39:10.786Z,35.65
2023-04-18T06:40:10.773Z,32.63
2023-04-18T06:41:09.784Z,33.32
2023-04-18T06:42:10.769Z,32.08
2023-04-18T06:43:09.838Z,31.06
2023-04-18T06:44:10.746Z,26.05
2023-04-18T06:45:10.749Z,30.67
2023-04-18T06:46:09.785Z,36.98
2023-04-18T06:47:10.725Z,35.53
2023-04-18T06:48:10.866Z,32.93
2023-04-18T06:49:10.708Z,34.88
2023-04-18T06:50:10.702Z,32.18
2023-04-18T06:51:10.700Z,34.20
2023-04-18T06:52:10.687Z,34.40
2023-04-18T06:53:10.684Z,33.75
2023-04-18T06:54:09.690Z,31.88
2023-04-18T06:55:09.663Z,34.75
2023-04-18T06:56:11.111Z,34.63
2023-04-18T06:57:10.655Z,32.34
2023-04-18T06:58:10.650Z,32.62
2023-04-18T06:59:10.725Z,31.34
2023-04-18T07:00:10.625Z,31.58
2023-04-18T07:01:10.767Z,34.00
2023-04-18T07:02:10.679Z,34.05
2023-04-18T07:03:11.138Z,39.97
2023-04-18T07:04:10.907Z,33.60
2023-04-18T07:05:09.602Z,31.07
2023-04-18T07:06:09.598Z,36.61
2023-04-18T07:07:09.593Z,33.65
2023-04-18T07:08:09.600Z,34.86
2023-04-18T07:09:11.578Z,36.25
2023-04-18T07:10:10.607Z,32.95
2023-04-18T07:11:10.570Z,32.98
2023-04-18T07:12:10.553Z,32.49
2023-04-18T07:13:09.554Z,37.22
2023-04-18T07:14:09.528Z,33.03
2023-04-18T07:15:09.544Z,34.21
2023-04-18T07:16:10.575Z,34.28
2023-04-18T07:17:10.588Z,34.24
2023-04-18T07:18:10.534Z,33.44
2023-04-18T07:19:10.511Z,34.42
2023-04-18T07:20:09.504Z,37.55
2023-04-18T07:21:09.499Z,33.25
2023-04-18T07:22:10.479Z,36.15
2023-04-18T07:23:10.506Z,37.25
2023-04-18T07:24:09.475Z,31.95
2023-04-18T07:25:10.464Z,37.91
2023-04-18T07:26:10.564Z,35.92
2023-04-18T07:27:10.451Z,37.06
2023-04-18T07:28:10.490Z,34.41
2023-04-18T07:29:10.463Z,41.48
2023-04-18T07:30:10.420Z,36.45
2023-04-18T07:31:09.461Z,34.74
2023-04-18T07:32:09.408Z,43.27
2023-04-18T07:33:09.393Z,37.43
2023-04-18T07:34:09.392Z,37.47
2023-04-18T07:35:09.385Z,39.22
2023-04-18T07:36:10.396Z,38.66
2023-04-18T07:37:10.721Z,40.16
2023-04-18T07:38:10.391Z,39.97
2023-04-18T07:39:10.390Z,39.90
2023-04-18T07:40:10.349Z,38.06
2023-04-18T07:41:10.349Z,39.79
2023-04-18T07:42:10.370Z,38.86
2023-04-18T07:43:10.328Z,39.68
2023-04-18T07:44:10.376Z,39.87
2023-04-18T07:45:10.324Z,38.27
2023-04-18T07:46:09.329Z,39.57
2023-04-18T07:47:10.464Z,39.70
2023-04-18T07:48:10.368Z,36.47
2023-04-18T07:49:10.357Z,37.51
2023-04-18T07:50:09.392Z,43.76
2023-04-18T07:51:09.618Z,38.72
2023-04-18T07:52:09.373Z,30.71
2023-04-18T07:53:09.381Z,27.23
2023-04-18T07:54:10.393Z,35.97
2023-04-18T07:55:09.402Z,37.37
2023-04-18T07:56:10.428Z,34.81
2023-04-18T07:57:10.413Z,28.18
2023-04-18T07:58:10.724Z,28.65
2023-04-18T07:59:10.491Z,35.86
2023-04-18T08:00:10.560Z,40.83
2023-04-18T08:01:10.600Z,37.76
2023-04-18T08:02:09.712Z,36.92
2023-04-18T08:03:10.938Z,37.28
2023-04-18T08:04:10.870Z,42.93
2023-04-18T08:05:09.971Z,37.36
2023-04-18T08:06:10.930Z,39.31
2023-04-18T08:07:10.910Z,43.91
2023-04-18T08:08:10.930Z,46.55
2023-04-18T08:09:10.977Z,49.66
2023-04-18T08:10:10.987Z,50.72
2023-04-18T08:11:11.030Z,49.50
2023-04-18T08:12:11.083Z,43.95
2023-04-18T08:13:11.106Z,42.38
2023-04-18T08:14:11.187Z,44.63
2023-04-18T08:15:11.195Z,43.47
2023-04-18T08:16:11.299Z,44.08
2023-04-18T08:17:11.253Z,48.49
2023-04-18T08:18:10.311Z,50.89
2023-04-18T08:19:11.521Z,51.33
2023-04-18T08:20:10.350Z,47.62
2023-04-18T08:21:11.359Z,44.96
2023-04-18T08:22:10.364Z,44.20
2023-04-18T08:23:12.831Z,45.43
2023-04-18T08:24:11.358Z,49.83
2023-04-18T08:25:10.373Z,57.10
2023-04-18T08:26:11.375Z,52.58
2023-04-18T08:27:11.348Z,52.10
2023-04-18T08:28:11.335Z,55.77
2023-04-18T08:29:11.548Z,56.02
2023-04-18T08:30:10.442Z,47.82
2023-04-18T08:31:10.351Z,46.10
2023-04-18T08:32:10.379Z,46.25
2023-04-18T08:33:11.311Z,50.40
2023-04-18T08:34:11.288Z,52.61
2023-04-18T08:35:11.287Z,47.31
2023-04-18T08:36:11.279Z,48.60
2023-04-18T08:37:11.283Z,48.67
2023-04-18T08:38:11.279Z,52.95
2023-04-18T08:39:11.503Z,42.13
2023-04-18T08:40:11.282Z,45.83
2023-04-18T08:41:10.602Z,44.83
2023-04-18T08:42:10.252Z,42.67
2023-04-18T08:43:11.230Z,43.80
2023-04-18T08:44:11.274Z,47.49
2023-04-18T08:45:11.204Z,56.47
2023-04-18T08:46:11.274Z,55.20
2023-04-18T08:47:10.212Z,53.08
2023-04-18T08:48:11.188Z,53.93
2023-04-18T08:49:12.115Z,50.80
2023-04-18T08:50:11.259Z,50.55
2023-04-18T08:51:10.175Z,50.40
2023-04-18T08:52:11.246Z,48.02
2023-04-18T08:53:11.149Z,44.43
2023-04-18T08:54:10.258Z,47.96
2023-04-18T08:55:11.142Z,45.12
2023-04-18T08:56:11.134Z,48.64
2023-04-18T08:57:10.129Z,47.01
2023-04-18T08:58:10.134Z,43.34
2023-04-18T08:59:10.098Z,42.39
2023-04-18T09:00:10.144Z,45.51
2023-04-18T09:01:10.150Z,44.96
2023-04-18T09:02:11.207Z,48.58
2023-04-18T09:03:11.148Z,45.41
2023-04-18T09:04:10.124Z,46.20
2023-04-18T09:05:11.069Z,44.64
2023-04-18T09:06:11.086Z,45.04
2023-04-18T09:07:10.061Z,36.92
2023-04-18T09:08:11.042Z,38.74
2023-04-18T09:09:11.209Z,39.27
2023-04-18T09:10:10.034Z,43.88
2023-04-18T09:11:11.013Z,45.12
2023-04-18T09:12:11.027Z,43.28
2023-04-18T09:13:10.025Z,47.01
2023-04-18T09:14:10.004Z,47.96
2023-04-18T09:15:11.023Z,45.27
2023-04-18T09:16:10.006Z,40.52
2023-04-18T09:17:09.985Z,42.55
2023-04-18T09:18:10.077Z,44.80
2023-04-18T09:19:11.191Z,45.27
2023-04-18T09:20:09.975Z,47.47
2023-04-18T09:21:10.964Z,51.04
2023-04-18T09:22:09.961Z,50.04
2023-04-18T09:23:11.334Z,53.92
2023-04-18T09:24:11.265Z,50.42
2023-04-18T09:25:10.946Z,55.43
2023-04-18T09:26:10.922Z,54.57
2023-04-18T09:27:09.941Z,51.28
2023-04-18T09:28:10.964Z,49.02
2023-04-18T09:29:11.044Z,46.52
2023-04-18T09:30:10.028Z,52.89
2023-04-18T09:31:10.127Z,49.35
2023-04-18T09:32:10.094Z,48.69
2023-04-18T09:33:11.115Z,48.41
2023-04-18T09:34:11.396Z,52.64
2023-04-18T09:35:10.192Z,49.71
2023-04-18T09:36:10.260Z,53.04
2023-04-18T09:37:10.399Z,53.65
2023-04-18T09:38:11.324Z,49.41
2023-04-18T09:39:11.358Z,52.07
2023-04-18T09:40:11.364Z,48.11
2023-04-18T09:41:11.379Z,49.25
2023-04-18T09:42:10.377Z,46.75
2023-04-18T09:43:10.387Z,49.38
2023-04-18T09:44:14.402Z,51.30
2023-04-18T09:45:11.433Z,51.38
2023-04-18T09:46:11.516Z,51.90
2023-04-18T09:47:11.627Z,50.62
2023-04-18T09:48:10.431Z,50.48
2023-04-18T09:49:11.084Z,47.79
2023-04-18T09:50:10.441Z,50.05
2023-04-18T09:51:11.396Z,46.04
2023-04-18T09:52:10.633Z,44.52
2023-04-18T09:53:10.367Z,36.85
2023-04-18T09:54:11.513Z,35.78
2023-04-18T09:55:10.388Z,36.84
2023-04-18T09:56:11.364Z,37.20
2023-04-18T09:57:11.337Z,34.58
2023-04-18T09:58:10.356Z,34.46
2023-04-18T09:59:11.376Z,33.22
2023-04-18T10:00:10.612Z,32.87
2023-04-18T10:01:11.344Z,33.04
2023-04-18T10:02:10.340Z,32.66
2023-04-18T10:03:11.419Z,30.74
2023-04-18T10:04:10.326Z,31.44
2023-04-18T10:05:11.335Z,30.84
2023-04-18T10:06:11.310Z,28.85
2023-04-18T10:07:10.262Z,31.35
2023-04-18T10:08:10.264Z,28.75
2023-04-18T10:09:11.289Z,27.28
2023-04-18T10:10:11.252Z,29.27
2023-04-18T10:11:11.298Z,27.29
2023-04-18T10:12:11.254Z,25.18
2023-04-18T10:13:11.245Z,27.23
2023-04-18T10:14:11.235Z,28.35
2023-04-18T10:15:11.222Z,26.22
2023-04-18T10:16:11.317Z,27.28
2023-04-18T10:17:11.198Z,25.35
2023-04-18T10:18:11.269Z,27.16
2023-04-18T10:19:10.175Z,27.54
2023-04-18T10:20:10.233Z,27.53
2023-04-18T10:21:10.177Z,29.46
2023-04-18T10:22:10.176Z,29.99
2023-04-18T10:23:10.154Z,32.18
2023-04-18T10:24:10.158Z,31.59
2023-04-18T10:25:10.144Z,31.38
2023-04-18T10:26:11.170Z,34.25
2023-04-18T10:27:11.155Z,32.98
2023-04-18T10:28:11.175Z,34.26
2023-04-18T10:29:11.251Z,37.54
2023-04-18T10:30:10.212Z,33.98
2023-04-18T10:31:11.307Z,34.99
2023-04-18T10:32:11.249Z,32.53
2023-04-18T10:33:18.492Z,36.08
2023-04-18T10:34:11.254Z,36.36
2023-04-18T10:35:10.235Z,36.58
2023-04-18T10:36:11.232Z,36.70
2023-04-18T10:37:11.233Z,36.63
2023-04-18T10:38:11.252Z,34.21
2023-04-18T10:39:11.213Z,36.19
2023-04-18T10:40:11.248Z,35.68
2023-04-18T10:41:11.196Z,37.15
2023-04-18T10:42:11.663Z,41.15
2023-04-18T10:43:10.190Z,39.78
2023-04-18T10:44:11.177Z,40.25
2023-04-18T10:45:11.176Z,40.94
2023-04-18T10:46:24.017Z,38.44
2023-04-18T10:47:11.696Z,38.68
2023-04-18T10:48:11.188Z,38.60
2023-04-18T10:49:11.283Z,38.99
2023-04-18T10:50:10.146Z,39.63
2023-04-18T10:51:11.132Z,38.92
2023-04-18T10:52:11.740Z,39.10
2023-04-18T10:53:11.115Z,43.12
2023-04-18T10:54:10.141Z,42.97
2023-04-18T10:55:11.108Z,37.63
2023-04-18T10:56:11.099Z,36.14
2023-04-18T10:57:10.089Z,38.43
2023-04-18T10:58:11.078Z,36.42
2023-04-18T10:59:10.068Z,32.75
2023-04-18T11:00:11.094Z,33.93
2023-04-18T11:01:11.185Z,33.38
2023-04-18T11:02:11.093Z,30.64
2023-04-18T11:03:11.198Z,29.44
2023-04-18T11:04:11.250Z,26.12
2023-04-18T11:05:11.028Z,25.93
2023-04-18T11:06:10.023Z,26.01
2023-04-18T11:07:11.024Z,27.10
2023-04-18T11:08:10.007Z,26.67
2023-04-18T11:09:11.031Z,26.92
2023-04-18T11:10:11.043Z,27.67
2023-04-18T11:11:10.988Z,25.82
2023-04-18T11:12:09.992Z,27.34
2023-04-18T11:13:09.982Z,27.13
2023-04-18T11:14:10.977Z,25.00
2023-04-18T11:15:09.967Z,30.95
2023-04-18T11:16:11.007Z,28.97
2023-04-18T11:17:10.952Z,28.24
2023-04-18T11:18:11.021Z,26.57
2023-04-18T11:19:10.934Z,26.36
2023-04-18T11:20:09.928Z,28.75
2023-04-18T11:21:10.930Z,27.54
2023-04-18T11:22:10.919Z,25.00
2023-04-18T11:23:09.915Z,26.37
2023-04-18T11:24:10.923Z,25.21
2023-04-18T11:25:10.895Z,25.00
2023-04-18T11:26:09.938Z,25.39
2023-04-18T11:27:09.888Z,26.73
2023-04-18T11:28:10.878Z,29.79
2023-04-18T11:29:10.863Z,26.49
2023-04-18T11:30:10.852Z,29.75
2023-04-18T11:31:09.860Z,31.86
2023-04-18T11:32:09.910Z,28.51
2023-04-18T11:33:10.905Z,27.17
2023-04-18T11:34:10.856Z,25.34
2023-04-18T11:35:10.831Z,30.50
2023-04-18T11:36:09.826Z,26.50
2023-04-18T11:37:11.187Z,27.55
2023-04-18T11:38:10.814Z,25.00
2023-04-18T11:39:10.825Z,29.81
2023-04-18T11:40:09.798Z,26.71
2023-04-18T11:41:10.778Z,25.00
2023-04-18T11:42:11.242Z,25.00
2023-04-18T11:43:09.804Z,27.85
2023-04-18T11:44:09.843Z,25.27
2023-04-18T11:45:10.855Z,26.96
2023-04-18T11:46:10.894Z,29.06
2023-04-18T11:47:09.911Z,28.94
2023-04-18T11:48:10.026Z,27.86
2023-04-18T11:49:10.997Z,26.18
2023-04-18T11:50:11.027Z,31.65
2023-04-18T11:51:11.056Z,30.11
2023-04-18T11:52:10.099Z,28.15
2023-04-18T11:53:11.129Z,31.06
2023-04-18T11:54:10.163Z,28.72
2023-04-18T11:55:10.204Z,26.22
2023-04-18T11:56:10.250Z,25.96
2023-04-18T11:57:11.324Z,26.55
2023-04-18T11:58:10.374Z,29.70
2023-04-18T11:59:11.387Z,25.79
2023-04-18T12:00:10.509Z,25.16
2023-04-18T12:01:10.471Z,25.86
2023-04-18T12:02:16.738Z,29.54
2023-04-18T12:03:13.855Z,29.68
2023-04-18T12:04:11.769Z,29.75
2023-04-18T12:05:11.990Z,30.17
2023-04-18T12:06:11.580Z,30.31
2023-04-18T12:07:10.484Z,27.57
2023-04-18T12:08:11.556Z,27.52
2023-04-18T12:09:11.477Z,25.68
2023-04-18T12:10:11.460Z,27.67
2023-04-18T12:11:10.453Z,26.11
2023-04-18T12:12:11.463Z,25.50
2023-04-18T12:13:11.440Z,26.47
2023-04-18T12:14:11.555Z,25.00
2023-04-18T12:15:10.421Z,27.51
2023-04-18T12:16:10.503Z,31.08
2023-04-18T12:17:11.419Z,28.11
2023-04-18T12:18:11.404Z,28.10
2023-04-18T12:19:11.402Z,27.19
2023-04-18T12:20:11.395Z,27.08
2023-04-18T12:21:10.383Z,27.28
2023-04-18T12:22:11.420Z,28.34
2023-04-18T12:23:11.464Z,29.35
2023-04-18T12:24:11.665Z,28.00
2023-04-18T12:25:11.561Z,25.57
2023-04-18T12:26:10.619Z,27.63
2023-04-18T12:27:10.662Z,29.48
2023-04-18T12:28:11.909Z,26.99
2023-04-18T12:29:11.894Z,28.28
2023-04-18T12:30:11.872Z,27.09
2023-04-18T12:31:11.935Z,33.33
2023-04-18T12:32:11.918Z,25.59
2023-04-18T12:33:10.961Z,36.48
2023-04-18T12:34:11.105Z,43.81
2023-04-18T12:35:12.045Z,45.01
2023-04-18T12:36:12.100Z,45.36
2023-04-18T12:37:11.110Z,49.15
2023-04-18T12:38:12.155Z,53.90
2023-04-18T12:39:11.163Z,49.67
2023-04-18T12:40:12.236Z,41.71
2023-04-18T12:41:12.213Z,40.44
2023-04-18T12:42:12.246Z,39.18
2023-04-18T12:43:12.266Z,47.29
2023-04-18T12:44:11.330Z,43.96
2023-04-18T12:45:12.292Z,46.40
2023-04-18T12:46:12.398Z,55.42
2023-04-18T12:47:12.321Z,61.03
2023-04-18T12:48:11.298Z,64.27
2023-04-18T12:49:12.290Z,65.03
2023-04-18T12:50:12.288Z,60.79
2023-04-18T12:51:12.309Z,63.80
2023-04-18T12:52:12.321Z,61.85
2023-04-18T12:53:12.315Z,63.64
2023-04-18T12:54:11.591Z,59.40
2023-04-18T12:55:11.371Z,58.64
2023-04-18T12:56:12.405Z,64.71
2023-04-18T12:57:11.443Z,53.72
2023-04-18T12:58:11.472Z,58.55
2023-04-18T12:59:12.770Z,63.01
2023-04-18T13:00:12.575Z,54.04
2023-04-18T13:01:11.627Z,53.15
2023-04-18T13:02:12.797Z,52.51
2023-04-18T13:03:13.415Z,48.22
2023-04-18T13:04:13.247Z,40.21
2023-04-18T13:05:11.732Z,43.31
2023-04-18T13:06:12.747Z,53.36
2023-04-18T13:07:12.759Z,55.63
2023-04-18T13:08:16.934Z,60.58
2023-04-18T13:09:12.883Z,60.71
2023-04-18T13:10:11.914Z,60.99
2023-04-18T13:11:12.771Z,55.61
2023-04-18T13:12:12.801Z,61.21
2023-04-18T13:13:11.792Z,44.80
2023-04-18T13:14:13.081Z,43.08
2023-04-18T13:15:12.739Z,54.85
2023-04-18T13:16:11.772Z,68.23
2023-04-18T13:17:12.721Z,71.92
2023-04-18T13:18:12.813Z,64.69
2023-04-18T13:19:13.007Z,60.89
2023-04-18T13:20:11.749Z,49.49
2023-04-18T13:21:12.707Z,50.82
2023-04-18T13:22:11.693Z,61.85
2023-04-18T13:23:12.709Z,69.38
2023-04-18T13:24:11.690Z,69.06
2023-04-18T13:25:12.685Z,66.64
2023-04-18T13:26:11.675Z,57.05
2023-04-18T13:27:11.672Z,60.28
2023-04-18T13:28:11.653Z,67.42
2023-04-18T13:29:12.855Z,64.96
2023-04-18T13:30:11.691Z,62.91
2023-04-18T13:31:13.269Z,63.77
2023-04-18T13:32:12.685Z,66.29
2023-04-18T13:33:11.747Z,64.44
2023-04-18T13:34:12.664Z,73.13
2023-04-18T13:35:11.620Z,70.19
2023-04-18T13:36:12.628Z,72.24
2023-04-18T13:37:11.638Z,71.30
2023-04-18T13:38:12.650Z,71.75
2023-04-18T13:39:12.947Z,69.50
2023-04-18T13:40:12.665Z,74.91
2023-04-18T13:41:13.270Z,77.06
2023-04-18T13:42:12.685Z,78.22
2023-04-18T13:43:11.701Z,78.04
2023-04-18T13:44:12.710Z,78.49
2023-04-18T13:45:12.717Z,75.75
2023-04-18T13:46:12.774Z,77.11
2023-04-18T13:47:12.748Z,82.26
2023-04-18T13:48:12.937Z,82.44
2023-04-18T13:49:12.034Z,78.30
2023-04-18T13:50:12.051Z,84.42
2023-04-18T13:51:12.926Z,85.73
2023-04-18T13:52:11.965Z,88.02
2023-04-18T13:53:11.951Z,83.84
2023-04-18T13:54:12.976Z,84.21
2023-04-18T13:55:12.991Z,74.64
2023-04-18T13:56:13.026Z,64.50
2023-04-18T13:57:12.057Z,76.25
2023-04-18T13:58:13.089Z,82.82
2023-04-18T13:59:13.263Z,80.19
2023-04-18T14:00:12.135Z,79.36
2023-04-18T14:01:12.224Z,81.38
2023-04-18T14:02:12.401Z,76.94
2023-04-18T14:03:12.315Z,78.29
2023-04-18T14:04:13.426Z,81.97
2023-04-18T14:05:13.377Z,85.61
2023-04-18T14:06:13.343Z,88.81
2023-04-18T14:07:13.277Z,92.52
2023-04-18T14:08:13.284Z,79.35
2023-04-18T14:09:13.599Z,82.30
2023-04-18T14:10:12.302Z,85.09
2023-04-18T14:11:13.317Z,76.27
2023-04-18T14:12:13.328Z,73.10
2023-04-18T14:13:12.352Z,70.20
2023-04-18T14:14:12.383Z,86.09
2023-04-18T14:15:13.412Z,91.31
2023-04-18T14:16:13.540Z,97.79
2023-04-18T14:17:13.514Z,102.38
2023-04-18T14:18:13.547Z,102.59
2023-04-18T14:19:12.837Z,100.68
2023-04-18T14:20:12.613Z,100.08
2023-04-18T14:21:13.633Z,97.60
2023-04-18T14:22:13.686Z,98.03
2023-04-18T14:23:12.717Z,85.32
2023-04-18T14:24:12.736Z,88.96
2023-04-18T14:25:12.783Z,89.93
2023-04-18T14:26:12.834Z,84.40
2023-04-18T14:27:13.866Z,79.03
2023-04-18T14:28:13.890Z,86.63
2023-04-18T14:29:14.196Z,87.96
2023-04-18T14:30:13.976Z,86.32
2023-04-18T14:31:14.072Z,80.50
2023-04-18T14:32:13.023Z,78.44
2023-04-18T14:33:14.082Z,76.47
2023-04-18T14:34:13.116Z,75.08
2023-04-18T14:35:13.164Z,68.54
2023-04-18T14:36:13.207Z,65.66
2023-04-18T14:37:14.200Z,63.48
2023-04-18T14:38:13.359Z,59.92
2023-04-18T14:39:14.612Z,61.75
2023-04-18T14:40:13.419Z,59.62
2023-04-18T14:41:13.472Z,52.63
2023-04-18T14:42:13.510Z,49.01
2023-04-18T14:43:14.590Z,50.77
2023-04-18T14:44:14.642Z,48.26
2023-04-18T14:45:14.694Z,41.29
2023-04-18T14:46:13.896Z,45.46
2023-04-18T14:47:13.783Z,40.12
2023-04-18T14:48:14.898Z,44.35
2023-04-18T14:49:14.066Z,41.26
2023-04-18T14:50:13.999Z,41.97
2023-04-18T14:51:15.035Z,45.14
2023-04-18T14:52:14.090Z,40.90
2023-04-18T14:53:15.198Z,36.62
2023-04-18T14:54:14.189Z,39.83
2023-04-18T14:55:14.256Z,39.39
2023-04-18T14:56:15.351Z,29.50
2023-04-18T14:57:14.397Z,28.30
2023-04-18T14:58:15.550Z,30.87
2023-04-18T14:59:16.685Z,30.86
2023-04-18T15:00:15.634Z,27.15
2023-04-18T15:01:15.635Z,30.66
2023-04-18T15:02:14.985Z,25.00
2023-04-18T15:03:14.924Z,34.15
2023-04-18T15:04:15.400Z,27.76
2023-04-18T15:05:15.975Z,29.00
2023-04-18T15:06:15.929Z,30.68
2023-04-18T15:07:15.984Z,29.55
2023-04-18T15:08:15.058Z,31.11
2023-04-18T15:09:15.244Z,25.00
2023-04-18T15:10:16.190Z,26.76
2023-04-18T15:11:16.242Z,28.92
2023-04-18T15:12:15.298Z,29.64
2023-04-18T15:13:16.369Z,26.11
2023-04-18T15:14:15.797Z,24.59
2023-04-18T15:15:15.481Z,28.63
2023-04-18T15:16:15.585Z,25.40
2023-04-18T15:17:15.589Z,27.17
2023-04-18T15:18:16.612Z,28.58
2023-04-18T15:19:15.663Z,27.26
2023-04-18T15:20:15.715Z,25.09
2023-04-18T15:21:15.734Z,24.84
2023-04-18T15:22:16.750Z,32.44
2023-04-18T15:23:16.811Z,34.12
2023-04-18T15:24:16.178Z,40.36
2023-04-18T15:25:15.891Z,58.59
2023-04-18T15:26:16.890Z,58.24
2023-04-18T15:27:15.974Z,61.78
2023-04-18T15:28:16.016Z,67.60
2023-04-18T15:29:16.054Z,69.70
